Time;durP1;ratioP1;P1;durP2;ratioP2;P2;SDS_P1;SDS_P2;PMS_P1;PMS_P2;Temp;Humidity;BMP_temperature;BMP_pressure;BME280_temperature;BME280_humidity;BME280_pressure;Samples;Min_cycle;Max_cycle;Signal;HPM_P1;HPM_P2
2023/02/15 00:01:49;;;;;;;16.65;10.95;;;;;;;9.85;50.97;101120.66;5010145;28;20053;-79
2023/02/15 00:04:19;;;;;;;16.45;10.95;;;;;;;9.81;51.04;101128.66;4992686;28;20046;-79
2023/02/15 00:06:46;;;;;;;18.17;11.65;;;;;;;9.76;50.94;101119.16;4992973;28;20095;-79
2023/02/15 00:09:13;;;;;;;16.73;10.82;;;;;;;9.73;51.08;101121.03;5011026;28;20416;-79
2023/02/15 00:11:39;;;;;;;15.50;10.40;;;;;;;9.69;51.35;101119.41;5011362;28;20052;-79
2023/02/15 00:14:13;;;;;;;17.20;10.75;;;;;;;9.62;51.94;101116.09;5011039;28;20081;-79
2023/02/15 00:16:40;;;;;;;;;;;;;;;9.61;51.60;101114.38;5009613;28;20045;-79
2023/02/15 00:19:07;;;;;;;13.48;9.43;;;;;;;9.60;50.74;101110.88;5011078;28;20378;-79
2023/02/15 00:21:35;;;;;;;15.45;9.60;;;;;;;9.54;50.85;101108.47;5011100;28;20056;-79
2023/02/15 00:24:03;;;;;;;14.68;9.48;;;;;;;9.47;50.67;101106.91;5010909;28;20077;-79
2023/02/15 00:26:30;;;;;;;16.60;9.68;;;;;;;9.40;50.73;101106.25;5010839;28;20052;-79
2023/02/15 00:29:00;;;;;;;16.10;10.57;;;;;;;9.34;50.85;101101.16;5009402;28;20493;-79
2023/02/15 00:31:30;;;;;;;17.92;10.95;;;;;;;9.28;51.25;101102.22;5018414;28;20417;-79
2023/02/15 00:34:10;;;;;;;14.88;10.52;;;;;;;9.19;51.71;101098.09;5008956;28;20490;-79
2023/02/15 00:36:37;;;;;;;16.60;10.60;;;;;;;9.17;51.36;101094.66;5010716;28;20054;-78
2023/02/15 00:39:07;;;;;;;16.00;10.65;;;;;;;9.13;51.45;101095.66;5011106;28;20048;-79
2023/02/15 00:41:34;;;;;;;17.35;9.73;;;;;;;9.09;51.71;101096.66;5011085;28;20108;-79
2023/02/15 00:44:00;;;;;;;14.25;9.68;;;;;;;9.06;51.50;101096.75;5011127;28;20057;-79
2023/02/15 00:46:27;;;;;;;17.23;10.43;;;;;;;9.04;51.48;101085.44;5010522;28;20073;-79
2023/02/15 00:48:53;;;;;;;14.68;10.52;;;;;;;9.01;51.41;101086.34;5010602;28;20056;-79
2023/02/15 00:51:20;;;;;;;15.95;10.02;;;;;;;8.99;51.87;101077.66;5010861;28;20057;-78
2023/02/15 00:53:47;;;;;;;14.48;9.93;;;;;;;8.96;51.69;101080.38;5010888;28;20100;-79
2023/02/15 00:56:14;;;;;;;16.25;9.48;;;;;;;8.95;51.75;101076.91;5010252;28;20058;-78
2023/02/15 00:58:41;;;;;;;16.55;10.60;;;;;;;8.93;51.79;101076.06;5010353;28;20046;-79
2023/02/15 01:01:12;;;;;;;15.90;10.20;;;;;;;8.93;52.03;101083.13;5010722;28;20054;-79
2023/02/15 01:03:41;;;;;;;14.02;9.55;;;;;;;8.94;51.65;101079.56;5010849;28;20065;-79
2023/02/15 01:06:09;;;;;;;15.00;10.10;;;;;;;8.93;51.67;101083.94;5010267;28;20400;-79
2023/02/15 01:08:35;;;;;;;15.82;10.73;;;;;;;8.92;51.94;101082.25;4992664;28;20046;-80
2023/02/15 01:11:08;;;;;;;18.30;11.70;;;;;;;8.90;52.04;101091.06;5010432;28;20511;-79
2023/02/15 01:13:35;;;;;;;15.00;10.43;;;;;;;8.88;52.00;101085.00;5010817;28;20053;-79
2023/02/15 01:16:03;;;;;;;15.18;10.65;;;;;;;8.83;51.87;101077.25;5011412;28;20061;-79
2023/02/15 01:18:30;;;;;;;17.25;11.15;;;;;;;8.81;52.31;101071.16;5014264;28;20056;-79
2023/02/15 01:20:57;;;;;;;13.65;9.52;;;;;;;8.79;52.13;101068.59;5014430;28;20056;-80
2023/02/15 01:23:24;;;;;;;17.42;10.68;;;;;;;8.78;52.28;101060.78;5014117;28;20038;-79
2023/02/15 01:25:50;;;;;;;14.95;9.65;;;;;;;8.78;52.08;101060.78;5013969;28;20394;-79
2023/02/15 01:28:17;;;;;;;15.38;10.45;;;;;;;8.78;52.18;101055.53;5012654;28;20077;-79
2023/02/15 01:30:43;;;;;;;15.88;10.43;;;;;;;8.78;52.36;101059.00;5014336;28;20479;-79
2023/02/15 01:33:17;;;;;;;15.27;10.52;;;;;;;8.80;52.52;101044.06;5013834;28;20049;-79
2023/02/15 01:35:47;;;;;;;15.65;9.93;;;;;;;8.80;53.12;101048.44;5013882;28;20081;-79
2023/02/15 01:38:14;;;;;;;15.25;10.25;;;;;;;8.80;52.56;101037.94;5012603;28;20048;-79
2023/02/15 01:40:41;;;;;;;14.18;9.95;;;;;;;8.81;52.12;101043.16;5014299;28;20326;-79
2023/02/15 01:43:12;;;;;;;14.60;9.82;;;;;;;8.80;52.88;101037.94;5013921;28;20100;-78
2023/02/15 01:45:39;;;;;;;15.23;9.35;;;;;;;8.83;52.42;101037.88;5013748;28;20149;-79
2023/02/15 01:48:22;;;;;;;12.98;9.38;;;;;;;8.80;53.14;101033.56;5013486;28;20037;-79
2023/02/15 01:50:56;;;;;;;15.65;10.57;;;;;;;8.80;53.19;101030.06;5014130;28;20065;-79
2023/02/15 01:53:39;;;;;;;15.15;10.27;;;;;;;8.79;53.30;101017.88;5012570;28;20057;-79
2023/02/15 01:56:17;;;;;;;16.15;10.35;;;;;;;8.81;52.46;101019.53;5013629;28;20038;-78
2023/02/15 01:58:45;;;;;;;16.10;10.18;;;;;;;8.82;52.47;101017.78;5013029;28;20065;-79
2023/02/15 02:01:11;;;;;;;16.45;10.45;;;;;;;8.81;52.48;101016.03;5013841;28;20096;-79
2023/02/15 02:03:47;;;;;;;15.90;10.73;;;;;;;8.77;53.14;101017.03;5012337;28;20034;-79
2023/02/15 02:06:14;;;;;;;15.15;10.70;;;;;;;8.76;52.09;101023.19;5012121;28;20146;-79
2023/02/15 02:08:42;;;;;;;16.63;11.43;;;;;;;8.72;52.31;101020.66;4995439;28;20073;-79
2023/02/15 02:11:12;;;;;;;21.35;11.52;;;;;;;8.65;52.92;101008.63;5013299;28;20402;-78
2023/02/15 02:13:43;;;;;;;19.73;11.40;;;;;;;8.59;53.17;101004.41;5013438;28;20050;-79
2023/02/15 02:16:20;;;;;;;19.45;12.02;;;;;;;8.55;52.37;101009.78;5013086;28;20060;-79
2023/02/15 02:19:19;;;;;;;17.40;11.13;;;;;;;8.42;53.60;101002.25;4982076;28;20112;-79
2023/02/15 02:21:58;;;;;;;19.42;11.63;;;;;;;8.37;53.55;101003.25;4993663;28;20133;-79
2023/02/15 02:24:40;;;;;;;19.33;12.30;;;;;;;8.31;53.77;101012.16;4993782;28;20137;-79
2023/02/15 02:27:32;;;;;;;21.07;11.87;;;;;;;8.27;53.92;101010.50;4992025;28;20048;-79
2023/02/15 02:30:27;;;;;;;18.33;12.45;;;;;;;8.24;54.64;101010.59;4993269;28;20042;-79
2023/02/15 02:33:22;;;;;;;19.80;12.48;;;;;;;8.21;54.38;101006.28;4993276;28;20086;-79
2023/02/15 02:35:56;;;;;;;23.63;12.30;;;;;;;8.16;54.03;101014.31;4992938;28;20054;-79
2023/02/15 02:38:43;;;;;;;17.90;12.75;;;;;;;8.12;54.44;101007.41;4992965;28;20454;-79
2023/02/15 02:41:19;;;;;;;20.00;12.95;;;;;;;8.09;54.42;101012.72;4993170;28;20054;-79
2023/02/15 02:44:07;;;;;;;23.15;14.00;;;;;;;8.04;55.14;101006.75;4993262;28;20092;-79
2023/02/15 02:46:50;;;;;;;20.95;13.98;;;;;;;8.00;55.08;100999.88;4992058;28;20081;-78
2023/02/15 02:49:17;;;;;;;21.35;14.18;;;;;;;7.99;54.00;100996.38;4993315;28;20134;-79
2023/02/15 02:51:43;;;;;;;22.17;14.23;;;;;;;7.95;54.00;100998.22;4991827;28;20129;-79
2023/02/15 02:54:10;;;;;;;27.58;15.00;;;;;;;7.94;54.03;100993.00;4993084;28;20050;-79
2023/02/15 02:56:44;;;;;;;25.83;15.27;;;;;;;7.92;54.71;100989.56;4992102;28;20061;-81
2023/02/15 02:59:18;;;;;;;22.75;13.80;;;;;;;7.90;54.74;100989.63;4992966;28;20077;-81
2023/02/15 03:01:57;;;;;;;22.52;13.68;;;;;;;7.91;54.76;100993.09;4992863;28;20376;-80
2023/02/15 03:04:30;;;;;;;20.02;13.88;;;;;;;7.92;54.25;100984.31;4993126;28;20053;-80
2023/02/15 03:07:01;;;;;;;22.83;14.43;;;;;;;7.90;54.53;100983.50;4992056;28;20050;-80
2023/02/15 03:09:41;;;;;;;24.63;14.70;;;;;;;7.90;54.47;100981.75;4992594;28;20039;-80
2023/02/15 03:12:31;;;;;;;24.85;14.63;;;;;;;7.85;55.55;100985.38;4992494;28;20546;-80
2023/02/15 03:15:01;;;;;;;24.85;14.70;;;;;;;7.85;54.71;100982.78;4992259;28;20046;-80
2023/02/15 03:20:10;;;;;;;21.25;14.25;;;;;;;7.76;55.12;100974.25;5018657;23;20056;-79
2023/02/15 03:22:44;;;;;;;24.08;15.30;;;;;;;7.73;54.88;100981.34;5011247;28;20050;-79
2023/02/15 03:25:17;;;;;;;25.70;14.43;;;;;;;7.72;54.74;100966.47;5011963;28;20049;-78
2023/02/15 03:27:48;;;;;;;29.98;14.45;;;;;;;7.70;54.99;100971.75;5011551;28;20054;-78
2023/02/15 03:30:21;;;;;;;27.63;15.45;;;;;;;7.68;54.82;100971.81;5012063;28;20065;-78
2023/02/15 03:32:50;;;;;;;24.15;13.95;;;;;;;7.68;54.89;100968.34;5012106;28;20060;-78
2023/02/15 03:35:22;;;;;;;23.80;15.20;;;;;;;7.66;54.79;100967.50;5007763;28;20041;-78
2023/02/15 03:37:58;;;;;;;26.20;14.93;;;;;;;7.62;55.57;100969.34;5011951;28;20046;-79
2023/02/15 03:41:11;;;;;;;21.30;14.50;;;;;;;7.58;55.92;100970.31;5012039;28;20395;-78
2023/02/15 03:43:41;;;;;;;24.65;14.45;;;;;;;7.60;54.46;100965.91;5011600;28;20061;-78
2023/02/15 03:46:22;;;;;;;21.60;14.52;;;;;;;7.56;55.92;100964.25;5011319;28;20525;-78
2023/02/15 03:48:54;;;;;;;21.67;14.95;;;;;;;7.57;55.20;100968.59;5011424;28;20050;-79
2023/02/15 03:51:34;;;;;;;23.45;14.43;;;;;;;7.56;55.26;100959.03;5011564;28;20431;-78
2023/02/15 03:54:47;;;;;;;20.70;13.50;;;;;;;7.54;56.29;100952.94;5011530;28;20054;-79
2023/02/15 04:03:20;;;;;;;25.95;15.15;;;;;;;7.53;56.34;100956.47;5011328;28;20590;-79
2023/02/15 04:05:46;;;;;;;25.08;15.73;;;;;;;7.51;55.17;100958.28;5010921;28;20584;-79
2023/02/15 04:08:13;;;;;;;28.05;16.23;;;;;;;7.45;55.27;100956.66;5010713;28;20490;-79
2023/02/15 04:10:52;;;;;;;26.52;15.93;;;;;;;7.40;55.20;100956.78;5011188;28;20054;-79
2023/02/15 04:13:24;;;;;;;27.13;16.75;;;;;;;7.33;56.86;100956.97;5011300;28;20141;-78
2023/02/15 04:16:03;;;;;;;26.63;15.95;;;;;;;7.30;55.69;100963.13;5010631;28;20114;-78
2023/02/15 04:26:52;;;;;;;25.95;15.38;;;;;;;7.16;55.78;100952.97;5010429;28;20216;-79
2023/02/15 04:29:23;;;;;;;26.48;16.35;;;;;;;7.12;56.50;100953.94;5010968;28;20535;-78
2023/02/15 04:31:51;;;;;;;23.67;15.52;;;;;;;7.10;55.94;100951.38;5010757;28;20518;-79
2023/02/15 04:34:18;;;;;;;24.88;15.77;;;;;;;7.08;55.85;100949.69;5010753;28;20140;-78
2023/02/15 04:36:45;;;;;;;24.35;15.23;;;;;;;7.06;56.16;100954.94;5010419;28;20052;-79
2023/02/15 04:39:16;;;;;;;25.33;14.77;;;;;;;7.06;56.83;100948.88;5011145;28;20455;-78
2023/02/15 04:41:43;;;;;;;26.42;15.88;;;;;;;7.05;56.27;100958.47;5010843;28;20062;-79
2023/02/15 04:44:10;;;;;;;24.08;15.23;;;;;;;7.02;56.01;100958.53;5010982;28;20054;-79
2023/02/15 04:46:37;;;;;;;21.73;13.98;;;;;;;7.03;55.92;100957.66;5010191;28;20458;-78
2023/02/15 04:49:04;;;;;;;24.20;15.75;;;;;;;7.01;55.67;100948.97;5010606;28;20064;-78
2023/02/15 04:51:30;;;;;;;23.70;14.20;;;;;;;7.00;56.10;100949.88;5011003;28;20522;-78
2023/02/15 04:53:57;;;;;;;25.48;15.23;;;;;;;7.00;55.75;100949.88;5014579;28;20560;-78
2023/02/15 04:56:23;;;;;;;24.10;15.73;;;;;;;6.97;55.91;100944.69;5014531;28;20486;-78
2023/02/15 04:58:50;;;;;;;25.48;15.07;;;;;;;6.93;55.81;100943.03;5015005;28;20049;-78
2023/02/15 05:01:17;;;;;;;25.35;15.43;;;;;;;6.88;55.83;100944.00;5017722;28;20050;-78
2023/02/15 05:03:44;;;;;;;25.00;15.40;;;;;;;6.85;55.77;100944.09;5016690;28;20111;-78
2023/02/15 05:06:10;;;;;;;31.35;15.90;;;;;;;6.83;55.71;100938.00;5014584;28;20062;-79
2023/02/15 05:08:37;;;;;;;24.77;14.95;;;;;;;6.80;55.93;100927.59;5014160;28;20055;-79
2023/02/15 05:11:04;;;;;;;25.70;15.43;;;;;;;6.80;55.98;100927.59;5014628;28;20097;-79
2023/02/15 05:13:30;;;;;;;21.38;14.10;;;;;;;6.81;56.36;100926.72;5014304;28;20045;-79
2023/02/15 05:15:57;;;;;;;21.75;13.55;;;;;;;6.83;56.33;100932.78;5013978;28;20496;-79
2023/02/15 05:18:23;;;;;;;22.65;14.95;;;;;;;6.85;55.98;100925.75;5013600;28;20053;-79
2023/02/15 05:20:50;;;;;;;23.23;14.75;;;;;;;6.86;56.12;100930.09;5014544;28;20112;-79
2023/02/15 05:23:16;;;;;;;22.55;14.48;;;;;;;6.88;55.93;100924.84;5014405;28;20409;-78
2023/02/15 05:28:32;;;;;;;25.77;16.52;;;;;;;6.83;55.81;100927.53;5013865;28;20053;-79
2023/02/15 05:31:03;;;;;;;25.35;15.68;;;;;;;6.77;56.31;100922.47;5007566;28;20153;-79
2023/02/15 05:33:31;;;;;;;21.35;14.13;;;;;;;6.74;56.17;100912.06;5014310;28;20076;-79
2023/02/15 05:35:57;;;;;;;23.80;14.02;;;;;;;6.70;56.05;100913.00;5013454;28;20107;-79
2023/02/15 05:38:24;;;;;;;21.88;14.63;;;;;;;6.68;56.02;100906.94;5013740;28;20054;-79
2023/02/15 05:40:51;;;;;;;24.60;14.85;;;;;;;6.67;56.18;100908.72;5013836;28;20104;-79
2023/02/15 05:43:18;;;;;;;25.52;15.32;;;;;;;6.64;56.39;100901.78;5013781;28;20064;-79
2023/02/15 05:45:52;;;;;;;24.00;15.23;;;;;;;6.62;56.80;100903.56;5013553;28;20421;-79
2023/02/15 05:48:21;;;;;;;28.50;16.00;;;;;;;6.64;56.21;100901.78;5010204;28;20092;-79
2023/02/15 05:51:07;;;;;;;23.63;15.27;;;;;;;6.61;57.51;100898.38;5013632;28;20145;-79
2023/02/15 05:53:36;;;;;;;27.23;15.27;;;;;;;6.63;56.26;100896.59;5013694;28;20058;-78
2023/02/15 05:56:03;;;;;;;22.80;15.55;;;;;;;6.62;56.26;100902.72;5007440;28;20057;-78
2023/02/15 05:58:33;;;;;;;25.63;16.25;;;;;;;6.60;56.77;100896.66;5013332;28;20046;-78
2023/02/15 06:01:08;;;;;;;26.85;17.52;;;;;;;6.56;57.64;100898.47;5013350;28;20110;-78
2023/02/15 06:03:34;;;;;;;25.25;15.95;;;;;;;6.56;56.35;100893.25;5013503;28;20521;-78
2023/02/15 06:06:03;;;;;;;25.27;15.32;;;;;;;6.54;56.65;100892.41;5012849;28;20057;-78
2023/02/15 06:08:31;;;;;;;26.08;15.48;;;;;;;6.49;56.48;100892.53;5013081;28;20112;-79
2023/02/15 06:10:57;;;;;;;27.33;16.38;;;;;;;6.46;56.88;100899.56;5013468;28;20080;-78
2023/02/15 06:13:24;;;;;;;25.38;16.52;;;;;;;6.41;56.85;100904.91;5013415;28;20169;-78
2023/02/15 06:15:50;;;;;;;30.05;16.38;;;;;;;6.37;56.92;100896.28;5012828;28;20514;-78
2023/02/15 06:18:17;;;;;;;24.67;15.65;;;;;;;6.33;56.81;100892.00;5012503;28;20100;-78
2023/02/15 06:20:47;;;;;;;24.98;15.90;;;;;;;6.29;57.34;100897.31;5013179;28;20088;-78
2023/02/15 06:23:14;;;;;;;24.90;15.55;;;;;;;6.27;57.17;100899.09;5013214;28;20069;-79
2023/02/15 06:25:41;;;;;;;25.48;15.75;;;;;;;6.24;56.90;100898.25;5012947;28;20050;-79
2023/02/15 06:28:08;;;;;;;28.25;14.90;;;;;;;6.23;56.94;100898.28;5012176;28;20112;-78
2023/02/15 06:30:34;;;;;;;22.90;14.32;;;;;;;6.21;56.85;100903.53;5013074;28;20057;-79
2023/02/15 06:33:01;;;;;;;22.80;14.88;;;;;;;6.21;57.10;100906.16;5012816;28;20141;-78
2023/02/15 06:35:27;;;;;;;24.33;14.93;;;;;;;6.22;57.14;100907.03;5010101;28;20056;-78
2023/02/15 06:37:54;;;;;;;24.92;15.68;;;;;;;6.22;56.93;100909.66;5012565;28;20104;-78
2023/02/15 06:40:20;;;;;;;23.75;14.15;;;;;;;6.22;56.71;100904.41;5012532;28;20422;-78
2023/02/15 06:42:46;;;;;;;23.20;14.82;;;;;;;6.22;56.81;100907.91;5004765;28;20053;-78
2023/02/15 06:45:13;;;;;;;21.95;14.05;;;;;;;6.24;56.61;100902.63;5011741;28;20052;-78
2023/02/15 06:47:40;;;;;;;20.80;13.25;;;;;;;6.26;56.56;100906.06;5011534;28;20049;-78
2023/02/15 06:50:07;;;;;;;27.13;14.70;;;;;;;6.28;56.66;100903.44;5012451;28;20058;-78
2023/02/15 06:52:34;;;;;;;24.10;14.23;;;;;;;6.30;56.27;100912.09;5012739;28;20115;-79
2023/02/15 06:55:00;;;;;;;22.65;14.02;;;;;;;6.30;56.13;100907.75;5011932;28;20227;-79
2023/02/15 06:57:27;;;;;;;22.38;13.68;;;;;;;6.31;56.31;100901.59;5012468;28;20057;-79
2023/02/15 06:59:53;;;;;;;24.83;14.68;;;;;;;6.30;56.20;100899.91;5012358;28;20462;-79
2023/02/15 07:02:20;;;;;;;20.60;13.57;;;;;;;6.31;56.20;100900.75;5012365;28;20089;-79
2023/02/15 07:04:46;;;;;;;22.00;13.73;;;;;;;6.29;56.09;100897.31;5012295;28;20054;-79
2023/02/15 07:07:13;;;;;;;21.33;13.43;;;;;;;6.27;56.42;100902.56;5012271;28;20085;-78
2023/02/15 07:09:40;;;;;;;24.88;14.35;;;;;;;6.26;56.10;100898.22;5012358;28;20092;-78
2023/02/15 07:14:52;;;;;;;27.65;14.05;;;;;;;6.23;56.25;100901.78;5010938;28;20054;-78
2023/02/15 07:17:18;;;;;;;21.58;13.02;;;;;;;6.21;56.15;100902.69;5012153;28;20069;-78
2023/02/15 07:20:04;;;;;;;21.25;13.93;;;;;;;6.18;56.44;100902.75;5012081;28;20046;-78
2023/02/15 07:22:33;;;;;;;22.08;13.75;;;;;;;6.17;56.63;100908.88;5011870;28;20521;-78
2023/02/15 07:25:00;;;;;;;24.52;14.48;;;;;;;6.13;56.77;100900.22;5010992;28;20136;-78
2023/02/15 07:27:27;;;;;;;23.52;14.30;;;;;;;6.10;56.57;100901.16;5011620;28;20120;-78
2023/02/15 07:29:53;;;;;;;23.38;14.10;;;;;;;6.10;56.95;100884.63;5011982;28;20088;-77
2023/02/15 07:32:20;;;;;;;22.70;14.27;;;;;;;6.09;56.64;100891.59;5012068;28;20454;-78
2023/02/15 07:34:46;;;;;;;21.85;14.70;;;;;;;6.09;56.51;100888.97;5011027;28;20049;-78
2023/02/15 07:37:13;;;;;;;23.70;13.93;;;;;;;6.09;56.66;100878.50;5010025;28;20050;-78
2023/02/15 07:39:39;;;;;;;21.05;13.02;;;;;;;6.11;56.70;100874.13;5010206;28;20052;-78
2023/02/15 07:42:06;;;;;;;22.85;13.65;;;;;;;6.11;56.91;100874.13;5009859;28;20096;-78
2023/02/15 07:44:32;;;;;;;22.23;13.52;;;;;;;6.11;56.69;100861.06;5011847;28;20054;-78
2023/02/15 07:46:59;;;;;;;22.10;13.95;;;;;;;6.13;56.74;100863.63;5010696;28;20053;-78
2023/02/15 07:49:25;;;;;;;24.00;14.30;;;;;;;6.15;56.83;100858.38;5010227;28;20049;-78
2023/02/15 07:51:51;;;;;;;20.92;13.88;;;;;;;6.16;57.07;100862.72;5010092;28;20058;-78
2023/02/15 07:54:18;;;;;;;24.08;15.43;;;;;;;6.17;56.93;100867.91;5011455;28;20050;-78
2023/02/15 07:56:45;;;;;;;25.33;14.95;;;;;;;6.17;56.88;100867.06;5002236;28;20045;-78
2023/02/15 07:59:11;;;;;;;27.98;14.82;;;;;;;6.18;56.95;100858.31;5011593;28;20677;-78
2023/02/15 08:01:38;;;;;;;25.80;15.50;;;;;;;6.21;57.07;100864.31;5011174;28;20093;-78
2023/02/15 08:04:09;;;;;;;26.58;16.05;;;;;;;6.22;57.10;100854.75;5011077;28;20054;-78
2023/02/15 08:06:36;;;;;;;27.08;15.85;;;;;;;6.24;57.15;100853.81;5010447;28;20144;-79
2023/02/15 08:09:05;;;;;;;25.67;16.27;;;;;;;6.27;57.33;100850.25;5011151;28;20252;-78
2023/02/15 08:11:37;;;;;;;27.65;17.05;;;;;;;6.29;57.63;100853.72;5011011;28;20502;-78
2023/02/15 08:14:08;;;;;;;27.83;16.67;;;;;;;6.34;57.14;100857.09;5011322;28;20050;-78
2023/02/15 08:16:37;;;;;;;27.40;16.52;;;;;;;6.37;57.50;100851.81;5010223;28;20144;-79
2023/02/15 08:19:05;;;;;;;25.80;15.95;;;;;;;6.43;57.35;100860.41;5011071;28;20053;-78
2023/02/15 08:21:33;;;;;;;25.80;16.27;;;;;;;6.46;57.37;100857.69;5010796;28;20416;-78
2023/02/15 08:24:00;;;;;;;26.08;16.42;;;;;;;6.50;57.26;100854.13;5011193;28;20413;-78
2023/02/15 08:26:28;;;;;;;28.80;16.92;;;;;;;6.54;57.28;100847.94;5009856;28;20503;-78
2023/02/15 08:28:55;;;;;;;28.10;16.75;;;;;;;6.59;57.00;100847.84;5010178;28;20415;-78
2023/02/15 08:31:22;;;;;;;28.95;16.90;;;;;;;6.61;56.92;100852.13;5010717;28;20497;-78
2023/02/15 08:33:52;;;;;;;29.58;18.08;;;;;;;6.64;56.86;100844.22;5010757;28;20124;-78
2023/02/15 08:36:21;;;;;;;27.70;16.60;;;;;;;6.68;57.45;100836.28;5010341;28;20089;-78
2023/02/15 08:38:48;;;;;;;28.55;16.30;;;;;;;6.70;57.07;100838.00;5010424;28;20057;-78
2023/02/15 08:41:18;;;;;;;27.88;17.83;;;;;;;6.72;57.15;100827.47;5010920;28;20046;-78
2023/02/15 08:43:47;;;;;;;32.55;19.85;;;;;;;6.73;57.04;100830.06;5010720;28;20140;-78
2023/02/15 08:46:15;;;;;;;30.15;17.95;;;;;;;6.77;57.13;100831.72;5010406;28;20514;-79
2023/02/15 08:48:41;;;;;;;28.42;18.25;;;;;;;6.79;57.19;100826.44;5010087;28;20127;-78
2023/02/15 08:51:18;;;;;;;31.33;18.90;;;;;;;6.83;57.13;100817.63;5010865;28;20054;-78
2023/02/15 08:53:50;;;;;;;31.52;19.20;;;;;;;6.85;57.22;100828.06;5010666;28;20052;-79
2023/02/15 08:56:19;;;;;;;30.98;19.25;;;;;;;6.88;57.22;100815.75;5010273;28;20053;-78
2023/02/15 08:58:46;;;;;;;27.33;17.13;;;;;;;6.90;57.01;100811.34;5010037;28;20061;-79
2023/02/15 09:01:19;;;;;;;30.75;19.25;;;;;;;6.92;57.45;100803.47;5010524;28;20569;-78
2023/02/15 09:03:49;;;;;;;32.33;18.80;;;;;;;6.95;57.01;100811.22;5010622;28;20092;-79
2023/02/15 09:06:17;;;;;;;29.83;17.95;;;;;;;6.98;57.36;100807.66;5010170;28;20042;-79
2023/02/15 09:08:43;;;;;;;27.48;17.30;;;;;;;7.03;56.94;100808.44;5009637;28;20053;-78
2023/02/15 09:11:13;;;;;;;28.35;17.90;;;;;;;7.07;57.48;100810.06;5010521;28;20061;-79
2023/02/15 09:13:40;;;;;;;30.80;18.52;;;;;;;7.12;56.99;100812.56;5010441;28;20083;-78
2023/02/15 09:16:08;;;;;;;31.98;19.30;;;;;;;7.15;57.06;100805.47;5010294;28;20049;-78
2023/02/15 09:21:43;;;;;;;27.73;17.52;;;;;;;7.29;57.06;100806.91;4969204;28;20561;-81
2023/02/15 09:24:12;;;;;;;29.90;17.83;;;;;;;7.35;57.35;100806.72;4971044;28;20061;-80
2023/02/15 09:26:41;;;;;;;28.15;18.58;;;;;;;7.40;57.13;100799.59;4970877;28;20520;-80
2023/02/15 09:29:09;;;;;;;30.50;18.35;;;;;;;7.49;57.20;100805.50;4971464;28;20069;-80
2023/02/15 09:31:44;;;;;;;30.42;18.15;;;;;;;7.55;57.35;100800.06;4971601;28;20074;-80
2023/02/15 09:34:13;;;;;;;27.13;17.17;;;;;;;7.65;57.15;100805.91;4971507;28;20475;-80
2023/02/15 09:36:40;;;;;;;31.20;18.88;;;;;;;7.73;57.27;100803.09;4971193;28;20412;-80
2023/02/15 09:39:09;;;;;;;29.90;19.25;;;;;;;7.77;56.87;100800.34;4974934;28;20054;-80
2023/02/15 09:42:03;;;;;;;29.83;19.45;;;;;;;7.84;57.44;100806.25;4974902;28;20790;-80
2023/02/15 09:44:48;;;;;;;29.73;18.65;;;;;;;7.95;56.68;100806.81;4975091;28;20051;-80
2023/02/15 09:47:40;;;;;;;31.88;18.75;;;;;;;8.01;56.87;100812.78;4974455;28;20067;-80
2023/02/15 09:50:13;;;;;;;29.38;18.83;;;;;;;8.07;56.74;100800.34;4974676;28;20051;-80
2023/02/15 09:53:03;;;;;;;27.23;17.23;;;;;;;8.17;57.12;100800.94;4974751;28;20055;-80
2023/02/15 09:55:51;;;;;;;28.05;18.30;;;;;;;8.25;56.57;100805.06;4974046;28;20495;-80
2023/02/15 09:58:32;;;;;;;32.03;18.88;;;;;;;8.36;56.45;100803.00;4974184;28;20057;-80
2023/02/15 10:01:11;;;;;;;34.45;19.20;;;;;;;8.46;56.37;100807.03;4974311;28;20414;-80
2023/02/15 10:04:03;;;;;;;30.08;19.15;;;;;;;8.52;56.00;100800.75;4974700;28;20089;-80
2023/02/15 10:06:41;;;;;;;28.80;17.75;;;;;;;8.62;56.25;100798.72;4973894;28;20058;-80
2023/02/15 10:09:17;;;;;;;29.15;18.13;;;;;;;8.68;56.07;100809.00;4974860;28;20108;-80
2023/02/15 10:12:07;;;;;;;30.17;17.85;;;;;;;8.76;56.06;100807.91;4974231;28;20542;-80
2023/02/15 10:14:52;;;;;;;29.33;18.27;;;;;;;8.85;55.87;100810.25;4965331;28;20071;-80
2023/02/15 10:17:25;;;;;;;30.80;19.42;;;;;;;8.96;55.65;100818.63;4973833;28;20047;-80
2023/02/15 10:20:19;;;;;;;27.75;18.52;;;;;;;9.03;56.03;100818.41;4974531;28;20054;-80
2023/02/15 10:23:13;;;;;;;29.80;17.48;;;;;;;9.13;55.73;100822.47;4974096;28;20133;-80
2023/02/15 10:25:45;;;;;;;;;;;;;;;9.25;55.53;100814.19;4973268;28;20046;-80
2023/02/15 10:28:19;;;;;;;28.75;17.70;;;;;;;9.36;55.20;100815.56;4967738;28;19929;-80
2023/02/15 10:30:51;;;;;;;25.95;17.92;;;;;;;9.43;55.24;100813.56;4963038;28;20063;-80
2023/02/15 10:33:24;;;;;;;29.92;18.17;;;;;;;9.51;55.04;100807.16;4973780;28;20054;-80
2023/02/15 10:36:12;;;;;;;30.02;19.95;;;;;;;9.56;55.08;100806.97;4956566;28;20055;-80
2023/02/15 10:38:56;;;;;;;35.33;20.50;;;;;;;9.65;55.09;100805.78;4973358;28;20057;-80
2023/02/15 10:41:29;;;;;;;28.73;19.60;;;;;;;9.75;54.75;100801.91;4973969;28;20053;-80
2023/02/15 10:44:17;;;;;;;31.55;19.05;;;;;;;9.84;54.44;100813.88;4973596;28;20105;-80
2023/02/15 10:47:08;;;;;;;30.65;19.00;;;;;;;9.95;54.73;100808.22;4972826;28;20554;-80
2023/02/15 10:49:56;;;;;;;29.23;18.98;;;;;;;10.08;54.84;100807.72;4965032;28;20075;-81
2023/02/15 10:52:37;;;;;;;29.17;19.10;;;;;;;10.18;54.40;100814.38;4973913;28;20054;-80
2023/02/15 10:55:12;;;;;;;32.60;19.85;;;;;;;10.27;54.11;100819.28;4973326;28;20074;-80
2023/02/15 10:58:01;;;;;;;35.45;20.83;;;;;;;10.38;54.50;100815.34;4973179;28;20047;-80
2023/02/15 11:00:39;;;;;;;32.65;19.42;;;;;;;10.52;54.24;100814.84;4973573;28;20050;-80
2023/02/15 11:03:16;;;;;;;31.27;19.30;;;;;;;10.66;54.30;100809.03;4973809;28;20061;-80
2023/02/15 11:05:50;;;;;;;30.02;20.08;;;;;;;10.77;54.33;100809.44;4966086;28;20062;-80
2023/02/15 11:08:17;;;;;;;30.25;19.70;;;;;;;10.94;54.51;100802.63;4973043;28;20546;-80
2023/02/15 11:10:56;;;;;;;30.42;19.60;;;;;;;11.06;53.39;100793.34;4973539;28;20058;-80
2023/02/15 11:13:28;;;;;;;36.30;21.70;;;;;;;11.24;53.39;100793.47;4973675;28;20113;-81
2023/02/15 11:16:00;;;;;;;25.55;16.35;;;;;;;11.39;53.69;100790.19;4972894;28;20085;-80
2023/02/15 11:18:30;;;;;;;34.70;21.90;;;;;;;11.55;53.41;100790.34;4955798;28;20053;-80
2023/02/15 11:21:10;;;;;;;33.53;21.05;;;;;;;11.78;54.88;100788.47;4972751;28;20050;-80
2023/02/15 11:23:44;;;;;;;33.33;20.90;;;;;;;12.09;54.58;100795.03;4965234;28;20051;-80
2023/02/15 11:26:18;;;;;;;34.00;21.58;;;;;;;12.49;53.97;100786.97;4972714;28;20069;-80
2023/02/15 11:29:01;;;;;;;27.88;19.88;;;;;;;12.98;53.99;100781.97;4964681;28;20495;-80
2023/02/15 11:31:42;;;;;;;31.35;20.63;;;;;;;13.48;50.46;100768.88;4972873;28;20050;-80
2023/02/15 11:34:31;;;;;;;31.10;20.23;;;;;;;13.94;50.69;100769.03;4972883;28;20055;-80
2023/02/15 11:37:29;;;;;;;33.13;21.48;;;;;;;14.31;49.67;100770.56;4971925;28;20069;-80
2023/02/15 11:39:56;;;;;;;33.22;21.67;;;;;;;14.54;50.46;100761.31;4966613;28;20055;-80
2023/02/15 11:42:25;;;;;;;32.50;21.98;;;;;;;14.69;49.85;100756.09;4971734;28;20046;-80
2023/02/15 11:44:55;;;;;;;31.85;20.88;;;;;;;14.85;50.08;100769.31;4953744;28;20051;-81
2023/02/15 11:47:22;;;;;;;31.38;19.83;;;;;;;15.05;50.16;100754.00;4963520;28;20082;-81
2023/02/15 11:49:49;;;;;;;33.13;21.67;;;;;;;15.32;50.13;100755.94;4971917;28;20047;-81
2023/02/15 11:52:18;;;;;;;29.80;21.13;;;;;;;15.64;49.84;100763.72;4972339;28;20503;-80
2023/02/15 11:54:50;;;;;;;28.88;19.52;;;;;;;16.03;48.62;100763.97;4972118;28;20125;-81
2023/02/15 11:57:17;;;;;;;27.83;19.50;;;;;;;16.52;49.97;100767.06;4968205;28;20051;-80
2023/02/15 11:59:52;;;;;;;29.75;20.05;;;;;;;16.96;45.87;100759.72;4972275;28;20137;-80
2023/02/15 12:02:21;;;;;;;28.98;20.38;;;;;;;17.32;45.40;100752.81;4972434;28;20058;-80
2023/02/15 12:04:56;;;;;;;25.00;18.75;;;;;;;17.58;44.71;100750.16;4971875;28;20050;-80